createdAt,value
2019-04-20T00:00:46.068Z,83.50
2019-04-20T00:03:13.849Z,83.70
2019-04-20T00:05:45.515Z,85.30
2019-04-20T00:08:22.606Z,85.00
2019-04-20T00:10:57.015Z,84.90
2019-04-20T00:13:30.865Z,85.50
2019-04-20T00:15:53.563Z,85.70
2019-04-20T00:18:26.877Z,86.60
2019-04-20T00:21:03.866Z,87.00
2019-04-20T00:23:36.764Z,86.70
2019-04-20T00:26:15.364Z,87.30
2019-04-20T00:28:55.832Z,87.10
2019-04-20T00:31:26.926Z,86.70
2019-04-20T00:33:54.953Z,86.90
2019-04-20T00:36:14.348Z,86.90
2019-04-20T00:38:51.363Z,87.50
2019-04-20T00:41:18.878Z,87.60
2019-04-20T00:43:49.220Z,88.60
2019-04-20T00:46:26.402Z,88.20
2019-04-20T00:49:00.287Z,88.10
2019-04-20T00:51:39.484Z,87.90
2019-04-20T00:53:58.572Z,87.20
2019-04-20T00:56:28.826Z,87.40
2019-04-20T00:59:13.282Z,87.10
2019-04-20T01:01:54.114Z,87.90
2019-04-20T01:04:20.191Z,87.20
2019-04-20T01:06:58.733Z,86.60
2019-04-20T01:09:28.846Z,85.70
2019-04-20T01:12:03.233Z,85.40
2019-04-20T01:14:40.673Z,85.50
2019-04-20T01:17:11.763Z,85.90
2019-04-20T01:19:35.633Z,86.20
2019-04-20T01:22:10.721Z,87.20
2019-04-20T01:24:43.331Z,86.80
2019-04-20T01:27:23.729Z,87.70
2019-04-20T01:29:47.773Z,87.00
2019-04-20T01:32:23.304Z,86.90
2019-04-20T01:34:55.125Z,87.60
2019-04-20T01:37:32.792Z,87.60
2019-04-20T01:39:55.447Z,88.00
2019-04-20T01:42:23.605Z,88.00
2019-04-20T01:44:56.660Z,89.10
2019-04-20T01:47:32.295Z,88.50
2019-04-20T01:50:04.754Z,88.50
2019-04-20T01:52:44.256Z,88.70
2019-04-20T01:55:34.651Z,88.70
2019-04-20T01:58:12.114Z,88.50
2019-04-20T02:00:44.983Z,89.30
2019-04-20T02:03:38.526Z,88.70
2019-04-20T02:06:11.621Z,89.50
2019-04-20T02:08:40.068Z,89.20
2019-04-20T02:11:18.719Z,89.40
2019-04-20T02:13:49.853Z,89.40
2019-04-20T02:16:25.787Z,89.40
2019-04-20T02:19:05.325Z,89.30
2019-04-20T02:21:34.251Z,90.00
2019-04-20T02:23:57.318Z,90.10
2019-04-20T02:26:23.975Z,89.90
2019-04-20T02:29:19.772Z,89.90
2019-04-20T02:32:19.705Z,90.10
2019-04-20T02:34:55.603Z,90.10
2019-04-20T02:37:32.281Z,90.10
2019-04-20T02:39:57.985Z,90.10
2019-04-20T02:42:37.203Z,89.90
2019-04-20T02:45:08.985Z,90.00
2019-04-20T02:47:35.762Z,90.10
2019-04-20T02:49:59.866Z,90.00
2019-04-20T02:55:09.428Z,90.00
2019-04-20T02:57:40.433Z,90.10
2019-04-20T03:02:23.696Z,90.40
2019-04-20T03:04:47.999Z,90.90
2019-04-20T03:07:28.429Z,90.80
2019-04-20T03:10:06.606Z,90.90
2019-04-20T03:12:38.987Z,91.00
2019-04-20T03:15:05.083Z,91.40
2019-04-20T03:17:44.444Z,91.70
2019-04-20T03:20:10.624Z,91.50
2019-04-20T03:23:13.119Z,91.50
2019-04-20T03:25:23.791Z,92.00
2019-04-20T03:27:59.537Z,92.00
2019-04-20T03:33:35.113Z,92.10
2019-04-20T03:36:00.403Z,92.30
2019-04-20T03:38:20.101Z,93.10
2019-04-20T03:40:46.488Z,92.90
2019-04-20T03:43:03.822Z,92.30
2019-04-20T03:45:42.685Z,92.40
2019-04-20T03:48:21.320Z,93.30
2019-04-20T03:51:00.506Z,93.30
2019-04-20T03:53:32.303Z,93.10
2019-04-20T03:56:02.138Z,92.80
2019-04-20T03:58:40.110Z,93.40
2019-04-20T04:01:33.098Z,94.10
2019-04-20T04:04:10.917Z,94.00
2019-04-20T04:06:28.528Z,93.80
2019-04-20T04:09:02.389Z,93.90
2019-04-20T04:11:38.128Z,93.70
2019-04-20T04:13:54.613Z,93.90
2019-04-20T04:16:32.867Z,94.40
2019-04-20T04:19:07.397Z,94.60
2019-04-20T04:21:44.748Z,95.30
2019-04-20T04:24:12.874Z,95.40
2019-04-20T04:26:50.031Z,95.50
2019-04-20T04:29:34.670Z,95.70
2019-04-20T04:32:05.459Z,95.50
2019-04-20T04:34:30.621Z,95.70
2019-04-20T04:37:09.280Z,95.30
2019-04-20T04:39:36.977Z,95.50
2019-04-20T04:42:14.133Z,95.80
2019-04-20T04:44:30.219Z,95.70
2019-04-20T04:46:58.006Z,96.10
2019-04-20T04:49:28.447Z,96.50
2019-04-20T04:52:01.097Z,96.30
2019-04-20T04:54:37.557Z,96.60
2019-04-20T04:56:58.700Z,96.90
2019-04-20T04:59:29.668Z,96.70
2019-04-20T05:02:01.519Z,96.60
2019-04-20T05:05:15.910Z,96.30
2019-04-20T05:07:52.000Z,96.70
2019-04-20T05:10:14.022Z,96.70
2019-04-20T05:12:45.969Z,95.70
2019-04-20T05:15:34.817Z,97.20
2019-04-20T05:18:05.791Z,96.60
2019-04-20T05:20:46.833Z,96.80
2019-04-20T05:23:13.034Z,97.20
2019-04-20T05:25:56.961Z,97.50
2019-04-20T05:28:24.031Z,97.30
2019-04-20T05:30:54.994Z,97.40
2019-04-20T05:33:34.471Z,97.40
2019-04-20T05:36:12.754Z,97.90
2019-04-20T05:38:47.140Z,98.40
2019-04-20T05:41:16.987Z,99.70
2019-04-20T05:43:52.383Z,99.90
2019-04-20T05:46:28.724Z,99.90
2019-04-20T05:48:58.960Z,99.90
2019-04-20T05:51:35.083Z,99.90
2019-04-20T05:54:02.631Z,99.90
2019-04-20T05:56:35.345Z,99.90
2019-04-20T05:59:07.060Z,99.90
2019-04-20T06:01:42.291Z,99.90
2019-04-20T06:04:09.969Z,99.90
2019-04-20T06:06:45.255Z,99.90
2019-04-20T06:09:18.924Z,99.90
2019-04-20T06:12:01.373Z,99.90
2019-04-20T06:14:10.419Z,99.90
2019-04-20T06:17:02.954Z,99.90
2019-04-20T06:19:35.701Z,99.90
2019-04-20T06:22:10.312Z,99.90
2019-04-20T06:24:53.098Z,99.90
2019-04-20T06:27:14.615Z,99.90
2019-04-20T06:29:45.788Z,99.90
2019-04-20T06:32:31.671Z,99.90
2019-04-20T06:34:47.840Z,99.90
2019-04-20T06:37:23.431Z,99.90
2019-04-20T06:39:54.661Z,99.90
2019-04-20T06:42:23.415Z,99.90
2019-04-20T06:44:57.296Z,99.90
2019-04-20T06:47:29.346Z,99.60
2019-04-20T06:50:03.369Z,98.60
2019-04-20T06:52:32.358Z,98.40
2019-04-20T06:55:13.852Z,98.80
2019-04-20T06:58:07.581Z,98.30
2019-04-20T07:03:11.971Z,97.50
2019-04-20T07:05:39.077Z,97.40
2019-04-20T07:08:00.707Z,96.90
2019-04-20T07:10:34.690Z,97.00
2019-04-20T07:12:55.315Z,97.40
2019-04-20T07:15:29.006Z,96.90
2019-04-20T07:18:12.965Z,96.80
2019-04-20T07:21:00.509Z,96.80
2019-04-20T07:23:26.549Z,96.50
2019-04-20T07:26:05.171Z,96.40
2019-04-20T07:28:32.873Z,96.10
2019-04-20T07:31:05.615Z,96.20
2019-04-20T07:33:37.192Z,95.70
2019-04-20T07:36:05.917Z,95.90
2019-04-20T07:38:40.491Z,95.70
2019-04-20T07:41:08.932Z,94.80
2019-04-20T07:43:57.514Z,95.30
2019-04-20T07:46:21.831Z,94.70
2019-04-20T07:48:42.982Z,94.50
2019-04-20T07:51:06.608Z,94.50
2019-04-20T07:53:40.427Z,94.20
2019-04-20T07:56:25.587Z,93.60
2019-04-20T07:58:44.081Z,93.50
2019-04-20T08:01:44.973Z,93.60
2019-04-20T08:04:07.856Z,93.50
2019-04-20T08:06:32.038Z,93.60
2019-04-20T08:09:13.416Z,93.00
2019-04-20T08:14:24.181Z,92.40
2019-04-20T08:17:12.275Z,91.60
2019-04-20T08:19:23.043Z,91.30
2019-04-20T08:22:04.655Z,91.10
2019-04-20T08:24:27.782Z,90.10
2019-04-20T08:26:51.976Z,89.80
2019-04-20T08:29:36.780Z,88.40
2019-04-20T08:32:11.650Z,86.20
2019-04-20T08:34:49.025Z,85.80
2019-04-20T08:37:17.344Z,84.00
2019-04-20T08:39:57.389Z,82.30
2019-04-20T08:42:21.748Z,83.00
2019-04-20T08:47:40.847Z,80.50
2019-04-20T08:50:19.874Z,78.20
2019-04-20T08:55:15.056Z,76.80
2019-04-20T08:57:31.589Z,74.70
2019-04-20T09:00:04.630Z,72.90
2019-04-20T09:02:34.938Z,71.70
2019-04-20T09:05:20.276Z,71.60
2019-04-20T09:07:52.297Z,70.60
2019-04-20T09:10:36.433Z,67.50
2019-04-20T09:12:57.243Z,66.60
2019-04-20T09:15:19.036Z,65.50
2019-04-20T09:17:56.032Z,63.80
2019-04-20T09:20:31.839Z,64.00
2019-04-20T09:23:21.329Z,62.70
2019-04-20T09:28:27.536Z,60.20
2019-04-20T09:31:09.512Z,60.30
2019-04-20T09:33:48.692Z,58.30
2019-04-20T09:36:20.355Z,58.00
2019-04-20T09:39:04.821Z,58.10
2019-04-20T09:42:01.828Z,57.30
2019-04-20T09:44:15.587Z,56.80
2019-04-20T09:46:51.522Z,56.70
2019-04-20T09:49:30.722Z,55.70
2019-04-20T09:52:06.541Z,54.90
2019-04-20T09:54:41.600Z,55.40
2019-04-20T09:57:13.764Z,54.40
2019-04-20T09:59:44.814Z,54.10
2019-04-20T10:02:06.692Z,52.50
2019-04-20T10:04:31.881Z,52.50
2019-04-20T10:07:07.678Z,52.30
2019-04-20T10:09:39.508Z,52.50
2019-04-20T10:12:07.930Z,51.00
2019-04-20T10:14:38.539Z,49.90
2019-04-20T10:17:09.673Z,49.60
2019-04-20T10:19:41.861Z,49.80
2019-04-20T10:22:13.079Z,50.20
2019-04-20T10:24:46.808Z,49.00
2019-04-20T10:27:16.779Z,49.30
2019-04-20T10:29:47.454Z,47.80
2019-04-20T10:32:19.599Z,46.90
2019-04-20T10:34:50.627Z,48.50
2019-04-20T10:37:23.862Z,47.50
2019-04-20T10:39:54.552Z,47.70
2019-04-20T10:42:26.045Z,46.30
2019-04-20T10:44:58.902Z,46.00
2019-04-20T10:47:29.349Z,46.20
2019-04-20T10:50:00.866Z,47.20
2019-04-20T10:52:32.031Z,46.70
2019-04-20T10:55:02.932Z,47.00
2019-04-20T10:57:33.480Z,46.60
2019-04-20T11:00:09.871Z,46.10
2019-04-20T11:02:43.965Z,45.80
2019-04-20T11:05:12.877Z,47.00
2019-04-20T11:07:44.317Z,45.10
2019-04-20T11:10:21.704Z,47.30
2019-04-20T11:12:48.427Z,46.60
2019-04-20T11:15:19.032Z,45.10
2019-04-20T11:17:49.641Z,45.20
2019-04-20T11:20:21.219Z,45.30
2019-04-20T11:22:52.672Z,44.10
2019-04-20T11:25:24.302Z,44.80
2019-04-20T11:27:56.396Z,45.80
2019-04-20T11:30:27.992Z,44.90
2019-04-20T11:33:00.155Z,42.80
2019-04-20T11:35:35.990Z,42.30
2019-04-20T11:38:03.308Z,43.40
2019-04-20T11:40:34.818Z,42.10
2019-04-20T11:43:05.812Z,43.70
2019-04-20T11:45:36.451Z,44.40
2019-04-20T11:48:07.520Z,43.40
2019-04-20T11:50:38.244Z,42.60
2019-04-20T11:53:09.051Z,42.10
2019-04-20T11:55:40.433Z,42.40
2019-04-20T11:58:12.162Z,40.80
2019-04-20T12:00:57.340Z,39.90
2019-04-20T12:03:28.256Z,41.90
2019-04-20T12:05:56.994Z,45.50
2019-04-20T12:08:25.042Z,45.30
2019-04-20T12:10:59.867Z,45.50
2019-04-20T12:13:28.990Z,46.70
2019-04-20T12:15:59.809Z,47.50
2019-04-20T12:18:31.602Z,47.40
2019-04-20T12:21:03.032Z,49.00
2019-04-20T12:23:34.026Z,48.50
2019-04-20T12:26:04.913Z,49.00
2019-04-20T12:28:35.853Z,48.10
2019-04-20T12:31:13.175Z,48.50
2019-04-20T12:33:38.608Z,48.30
2019-04-20T12:36:10.352Z,49.10
2019-04-20T12:38:41.339Z,50.20
2019-04-20T12:41:14.050Z,50.00
2019-04-20T12:43:44.108Z,49.90
2019-04-20T12:46:17.903Z,51.10
2019-04-20T12:48:47.441Z,50.50
2019-04-20T12:51:19.570Z,50.50
2019-04-20T12:53:50.824Z,50.90
2019-04-20T12:56:22.376Z,51.00
2019-04-20T12:58:53.615Z,52.20
2019-04-20T13:01:25.859Z,51.50
2019-04-20T13:03:57.401Z,50.80
2019-04-20T13:06:28.133Z,51.00
2019-04-20T13:09:00.597Z,52.00
2019-04-20T13:11:54.679Z,52.10
2019-04-20T13:14:48.548Z,52.20
2019-04-20T13:17:20.009Z,51.70
2019-04-20T13:19:51.276Z,52.60
2019-04-20T13:22:23.136Z,52.70
2019-04-20T13:24:54.971Z,53.00
2019-04-20T13:27:25.497Z,53.00
2019-04-20T13:29:56.040Z,53.60
2019-04-20T13:32:27.623Z,53.30
2019-04-20T13:34:58.293Z,53.10
2019-04-20T13:37:28.749Z,53.40
2019-04-20T13:40:00.701Z,54.00
2019-04-20T13:42:33.063Z,52.80
2019-04-20T13:45:04.984Z,53.40
2019-04-20T13:47:35.343Z,53.00
2019-04-20T13:50:07.584Z,53.50
2019-04-20T13:52:38.488Z,52.60
2019-04-20T13:55:09.140Z,52.60
2019-04-20T13:58:00.020Z,52.70
2019-04-20T14:00:57.343Z,53.30
2019-04-20T14:03:30.378Z,52.90
2019-04-20T14:06:02.535Z,53.40
2019-04-20T14:08:35.562Z,53.70
2019-04-20T14:11:07.229Z,53.20
2019-04-20T14:13:43.703Z,53.10
2019-04-20T14:16:11.322Z,53.70
2019-04-20T14:18:42.912Z,53.60
2019-04-20T14:21:14.221Z,53.20
2019-04-20T14:23:45.393Z,53.70
2019-04-20T14:26:16.725Z,53.40
2019-04-20T14:28:47.438Z,54.40
2019-04-20T14:31:17.832Z,53.60
2019-04-20T14:33:48.763Z,53.40
2019-04-20T14:36:19.557Z,52.40
2019-04-20T14:38:50.109Z,53.80
2019-04-20T14:41:20.589Z,53.50
2019-04-20T14:43:51.269Z,53.40
2019-04-20T14:46:23.050Z,54.20
2019-04-20T14:48:54.588Z,53.70
2019-04-20T14:51:25.775Z,54.20
2019-04-20T14:53:56.467Z,54.10
2019-04-20T14:56:27.398Z,54.20
2019-04-20T14:58:59.752Z,54.10
2019-04-20T15:01:38.712Z,53.80
2019-04-20T15:04:15.108Z,54.70
2019-04-20T15:06:42.451Z,54.20
2019-04-20T15:09:12.999Z,54.50
2019-04-20T15:11:45.179Z,54.00
2019-04-20T15:14:16.503Z,54.60
2019-04-20T15:16:46.969Z,54.80
2019-04-20T15:19:18.966Z,54.90
2019-04-20T15:21:57.717Z,55.40
2019-04-20T15:24:29.396Z,55.40
2019-04-20T15:27:00.468Z,55.40
2019-04-20T15:29:30.704Z,56.20
2019-04-20T15:32:02.032Z,57.50
2019-04-20T15:34:32.966Z,56.90
2019-04-20T15:37:05.347Z,57.20
2019-04-20T15:39:36.950Z,56.90
2019-04-20T15:42:07.716Z,56.70
2019-04-20T15:44:39.594Z,57.20
2019-04-20T15:47:11.176Z,58.20
2019-04-20T15:49:42.045Z,59.30
2019-04-20T15:52:17.868Z,58.80
2019-04-20T15:54:45.523Z,58.50
2019-04-20T15:57:21.292Z,59.30
2019-04-20T15:59:48.631Z,59.00
2019-04-20T16:02:31.463Z,58.20
2019-04-20T16:05:08.175Z,58.60
2019-04-20T16:07:46.811Z,59.20
2019-04-20T16:10:11.077Z,59.20
2019-04-20T16:15:22.533Z,59.20
2019-04-20T16:17:53.287Z,59.70
2019-04-20T16:20:26.963Z,60.10
2019-04-20T16:22:58.537Z,60.00
2019-04-20T16:25:37.318Z,60.00
2019-04-20T16:28:07.963Z,62.80
2019-04-20T16:30:38.553Z,59.80
2019-04-20T16:33:10.389Z,59.90
2019-04-20T16:35:42.480Z,60.10
2019-04-20T16:38:14.197Z,60.20
2019-04-20T16:40:44.729Z,59.90
2019-04-20T16:43:23.526Z,60.00
2019-04-20T16:45:47.450Z,59.50
2019-04-20T16:48:18.055Z,60.00
2019-04-20T16:50:48.859Z,60.30
2019-04-20T16:53:19.261Z,61.30
2019-04-20T16:55:50.614Z,64.30
2019-04-20T16:58:21.739Z,64.50
2019-04-20T17:00:52.173Z,64.60
2019-04-20T17:03:27.901Z,64.40
2019-04-20T17:05:55.952Z,64.90
2019-04-20T17:08:26.997Z,64.80
2019-04-20T17:10:58.049Z,65.10
2019-04-20T17:13:38.203Z,65.30
2019-04-20T17:16:01.804Z,65.50
2019-04-20T17:18:33.889Z,66.00
2019-04-20T17:21:14.035Z,65.60
2019-04-20T17:23:37.439Z,65.80
2019-04-20T17:26:10.221Z,65.70
2019-04-20T17:28:44.844Z,66.20
2019-04-20T17:31:17.555Z,66.40
2019-04-20T17:34:01.391Z,69.30
2019-04-20T17:36:26.190Z,68.30
2019-04-20T17:38:58.492Z,68.80
2019-04-20T17:41:44.478Z,69.00
2019-04-20T17:44:17.664Z,69.10
2019-04-20T17:46:43.894Z,69.50
2019-04-20T17:49:15.938Z,69.70
2019-04-20T17:51:59.168Z,70.20
2019-04-20T17:54:22.045Z,70.50
2019-04-20T17:56:53.969Z,70.80
2019-04-20T17:59:26.113Z,71.00
2019-04-20T18:02:11.669Z,71.40
2019-04-20T18:05:03.759Z,71.70
2019-04-20T18:07:28.447Z,71.90
2019-04-20T18:09:58.915Z,72.10
2019-04-20T18:12:18.811Z,72.60
2019-04-20T18:14:53.549Z,72.90
2019-04-20T18:17:32.037Z,73.20
2019-04-20T18:19:57.035Z,73.90
2019-04-20T18:22:27.899Z,74.20
2019-04-20T18:25:19.196Z,74.90
2019-04-20T18:27:52.224Z,75.60
2019-04-20T18:30:19.126Z,75.50
2019-04-20T18:32:37.836Z,76.30
2019-04-20T18:35:10.594Z,77.20
2019-04-20T18:37:44.097Z,77.70
2019-04-20T18:40:28.018Z,78.80
2019-04-20T18:42:58.379Z,80.00
2019-04-20T18:45:35.147Z,80.60
2019-04-20T18:48:11.681Z,81.80
2019-04-20T18:50:30.739Z,82.30
2019-04-20T18:52:55.882Z,82.20
2019-04-20T18:55:33.285Z,82.20
2019-04-20T18:57:59.356Z,82.10
2019-04-20T19:00:33.755Z,83.70
2019-04-20T19:03:09.700Z,84.50
2019-04-20T19:05:35.761Z,84.30
2019-04-20T19:08:10.486Z,84.80
2019-04-20T19:10:41.736Z,85.70
2019-04-20T19:13:22.422Z,86.00
2019-04-20T19:16:15.211Z,86.20
2019-04-20T19:18:53.558Z,86.40
2019-04-20T19:21:11.073Z,86.10
2019-04-20T19:23:50.274Z,86.00
2019-04-20T19:26:18.193Z,86.70
2019-04-20T19:28:52.552Z,86.80
2019-04-20T19:31:33.975Z,86.80
2019-04-20T19:34:16.895Z,87.00
2019-04-20T19:36:30.701Z,87.20
2019-04-20T19:39:12.154Z,87.30
2019-04-20T19:41:39.132Z,86.50
2019-04-20T19:44:10.333Z,86.80
2019-04-20T19:47:05.281Z,87.40
2019-04-20T19:49:19.595Z,87.70
2019-04-20T19:52:02.992Z,85.30
2019-04-20T19:54:30.146Z,86.10
2019-04-20T19:56:54.589Z,85.40
2019-04-20T19:59:25.117Z,85.50
2019-04-20T20:01:45.430Z,85.40
2019-04-20T20:04:17.465Z,85.40
2019-04-20T20:06:55.891Z,86.10
2019-04-20T20:09:21.737Z,86.70
2019-04-20T20:11:58.549Z,87.70
2019-04-20T20:14:32.534Z,88.30
2019-04-20T20:17:14.305Z,88.10
2019-04-20T20:19:45.963Z,89.60
2019-04-20T20:22:13.200Z,90.40
2019-04-20T20:24:33.633Z,90.30
2019-04-20T20:27:11.679Z,90.60
2019-04-20T20:29:45.351Z,91.30
2019-04-20T20:32:21.383Z,92.10
2019-04-20T20:34:44.150Z,92.20
2019-04-20T20:37:23.770Z,92.30
2019-04-20T20:39:54.773Z,92.00
2019-04-20T20:42:30.507Z,93.10
2019-04-20T20:44:54.998Z,93.40
2019-04-20T20:47:41.188Z,94.00
2019-04-20T20:50:20.402Z,94.80
2019-04-20T20:52:43.399Z,95.70
2019-04-20T20:55:06.571Z,96.60
2019-04-20T20:57:42.436Z,96.70
2019-04-20T21:00:18.485Z,96.70
2019-04-20T21:02:44.830Z,97.20
2019-04-20T21:05:09.257Z,97.10
2019-04-20T21:07:40.528Z,97.20
2019-04-20T21:10:16.301Z,97.70
2019-04-20T21:12:52.026Z,98.00
2019-04-20T21:15:20.805Z,98.20
2019-04-20T21:18:10.718Z,98.60
2019-04-20T21:20:41.089Z,98.50
2019-04-20T21:23:07.008Z,98.90
2019-04-20T21:25:43.513Z,99.00
2019-04-20T21:28:10.869Z,99.80
2019-04-20T21:30:45.155Z,99.90
2019-04-20T21:33:14.905Z,99.90
2019-04-20T21:35:48.888Z,99.90
2019-04-20T21:38:18.660Z,99.90
2019-04-20T21:40:51.234Z,99.90
2019-04-20T21:43:27.937Z,99.90
2019-04-20T21:45:59.446Z,99.90
2019-04-20T21:48:38.971Z,99.90
2019-04-20T21:51:13.388Z,99.90
2019-04-20T21:53:33.279Z,99.90
2019-04-20T21:56:01.752Z,99.90
2019-04-20T21:58:39.469Z,99.90
2019-04-20T22:01:17.670Z,99.90
2019-04-20T22:03:38.414Z,99.90
2019-04-20T22:06:10.618Z,99.90
2019-04-20T22:08:47.983Z,99.90
2019-04-20T22:11:13.595Z,99.90
2019-04-20T22:13:47.277Z,99.90
2019-04-20T22:16:18.151Z,99.90
2019-04-20T22:18:54.286Z,99.90
2019-04-20T22:21:26.663Z,99.90
2019-04-20T22:24:06.272Z,99.90
2019-04-20T22:26:33.710Z,99.90
2019-04-20T22:28:56.416Z,99.90
2019-04-20T22:31:26.737Z,99.90
2019-04-20T22:34:02.318Z,99.90
2019-04-20T22:36:33.868Z,99.90
2019-04-20T22:39:09.586Z,99.90
2019-04-20T22:41:46.673Z,99.90
2019-04-20T22:44:20.292Z,99.90
2019-04-20T22:46:47.635Z,99.90
2019-04-20T22:49:36.284Z,99.90
2019-04-20T22:52:00.631Z,99.90
2019-04-20T22:54:39.750Z,99.90
2019-04-20T22:57:03.594Z,99.90
2019-04-20T22:59:38.300Z,99.90
2019-04-20T23:02:01.195Z,99.90
2019-04-20T23:04:30.979Z,99.90
2019-04-20T23:07:01.168Z,99.90
2019-04-20T23:09:32.845Z,99.90
2019-04-20T23:12:09.644Z,99.90
2019-04-20T23:14:36.418Z,99.90
2019-04-20T23:17:08.173Z,99.90
2019-04-20T23:19:47.180Z,99.90
2019-04-20T23:22:13.800Z,99.90
2019-04-20T23:24:42.382Z,99.90
2019-04-20T23:27:18.810Z,99.90
2019-04-20T23:29:45.174Z,99.90
2019-04-20T23:32:17.471Z,99.90
2019-04-20T23:34:49.037Z,99.90
2019-04-20T23:37:27.710Z,99.90
2019-04-20T23:39:53.071Z,99.90
2019-04-20T23:42:42.765Z,99.90
2019-04-20T23:45:17.040Z,99.90
2019-04-20T23:47:57.432Z,99.90
2019-04-20T23:50:40.940Z,99.90
2019-04-20T23:53:14.150Z,99.90
2019-04-20T23:55:27.908Z,99.90
2019-04-20T23:58:03.450Z,99.90
